sensor_id;sensor_type;location;lat;lon;timestamp;P1;durP1;ratioP1;P2;durP2;ratioP2
21000;SDS011;10658;50.920;12.238;2022-08-19T00:03:16;28.35;;;19.65;;
21000;SDS011;10658;50.920;12.238;2022-08-19T00:07:21;19.48;;;15.15;;
21000;SDS011;10658;50.920;12.238;2022-08-19T00:11:22;20.60;;;15.30;;
21000;SDS011;10658;50.920;12.238;2022-08-19T00:15:24;21.63;;;15.18;;
21000;SDS011;10658;50.920;12.238;2022-08-19T00:19:25;21.83;;;14.63;;
21000;SDS011;10658;50.920;12.238;2022-08-19T00:23:27;23.13;;;17.08;;
21000;SDS011;10658;50.920;12.238;2022-08-19T00:27:28;27.55;;;18.45;;
21000;SDS011;10658;50.920;12.238;2022-08-19T00:31:29;28.30;;;19.15;;
21000;SDS011;10658;50.920;12.238;2022-08-19T00:35:31;26.85;;;18.52;;
21000;SDS011;10658;50.920;12.238;2022-08-19T00:39:33;32.55;;;21.00;;
21000;SDS011;10658;50.920;12.238;2022-08-19T00:43:35;27.02;;;17.70;;
21000;SDS011;10658;50.920;12.238;2022-08-19T00:47:36;27.67;;;18.08;;
21000;SDS011;10658;50.920;12.238;2022-08-19T00:51:37;27.65;;;18.25;;
21000;SDS011;10658;50.920;12.238;2022-08-19T00:55:39;27.02;;;16.88;;
21000;SDS011;10658;50.920;12.238;2022-08-19T00:59:41;28.50;;;18.40;;
21000;SDS011;10658;50.920;12.238;2022-08-19T01:03:46;27.17;;;17.20;;
21000;SDS011;10658;50.920;12.238;2022-08-19T01:07:47;30.98;;;20.20;;
21000;SDS011;10658;50.920;12.238;2022-08-19T01:11:51;28.63;;;19.33;;
21000;SDS011;10658;50.920;12.238;2022-08-19T01:15:59;32.13;;;20.77;;
21000;SDS011;10658;50.920;12.238;2022-08-19T01:20:03;26.42;;;19.63;;
21000;SDS011;10658;50.920;12.238;2022-08-19T01:24:06;29.95;;;20.60;;
21000;SDS011;10658;50.920;12.238;2022-08-19T01:28:07;28.92;;;19.60;;
21000;SDS011;10658;50.920;12.238;2022-08-19T01:32:31;31.15;;;20.83;;
21000;SDS011;10658;50.920;12.238;2022-08-19T01:36:41;32.83;;;22.63;;
21000;SDS011;10658;50.920;12.238;2022-08-19T01:40:47;27.70;;;20.27;;
21000;SDS011;10658;50.920;12.238;2022-08-19T01:44:48;29.80;;;20.77;;
21000;SDS011;10658;50.920;12.238;2022-08-19T01:48:50;33.55;;;22.30;;
21000;SDS011;10658;50.920;12.238;2022-08-19T01:52:51;34.63;;;23.98;;
21000;SDS011;10658;50.920;12.238;2022-08-19T01:56:53;37.80;;;25.15;;
21000;SDS011;10658;50.920;12.238;2022-08-19T02:00:59;36.00;;;24.77;;
21000;SDS011;10658;50.920;12.238;2022-08-19T02:05:00;37.92;;;26.92;;
21000;SDS011;10658;50.920;12.238;2022-08-19T02:09:02;44.38;;;27.83;;
21000;SDS011;10658;50.920;12.238;2022-08-19T02:13:04;49.72;;;30.23;;
21000;SDS011;10658;50.920;12.238;2022-08-19T02:17:05;43.10;;;28.85;;
21000;SDS011;10658;50.920;12.238;2022-08-19T02:21:07;38.70;;;27.05;;
21000;SDS011;10658;50.920;12.238;2022-08-19T02:25:10;44.22;;;28.33;;
21000;SDS011;10658;50.920;12.238;2022-08-19T02:29:13;42.67;;;29.00;;
21000;SDS011;10658;50.920;12.238;2022-08-19T02:33:14;44.92;;;29.77;;
21000;SDS011;10658;50.920;12.238;2022-08-19T02:37:16;42.75;;;28.85;;
21000;SDS011;10658;50.920;12.238;2022-08-19T02:41:35;44.80;;;30.75;;
21000;SDS011;10658;50.920;12.238;2022-08-19T02:45:38;49.40;;;30.88;;
21000;SDS011;10658;50.920;12.238;2022-08-19T02:49:40;40.28;;;28.73;;
21000;SDS011;10658;50.920;12.238;2022-08-19T02:53:42;41.38;;;28.05;;
21000;SDS011;10658;50.920;12.238;2022-08-19T02:57:43;45.58;;;31.05;;
21000;SDS011;10658;50.920;12.238;2022-08-19T03:01:45;44.88;;;31.67;;
21000;SDS011;10658;50.920;12.238;2022-08-19T03:05:46;48.80;;;31.50;;
21000;SDS011;10658;50.920;12.238;2022-08-19T03:09:48;41.20;;;28.88;;
21000;SDS011;10658;50.920;12.238;2022-08-19T03:13:49;42.05;;;28.75;;
21000;SDS011;10658;50.920;12.238;2022-08-19T03:17:51;44.72;;;29.85;;
21000;SDS011;10658;50.920;12.238;2022-08-19T03:21:52;43.70;;;30.63;;
21000;SDS011;10658;50.920;12.238;2022-08-19T03:25:53;44.03;;;31.60;;
21000;SDS011;10658;50.920;12.238;2022-08-19T03:29:54;43.22;;;29.80;;
21000;SDS011;10658;50.920;12.238;2022-08-19T03:33:55;42.40;;;28.35;;
21000;SDS011;10658;50.920;12.238;2022-08-19T03:37:58;45.88;;;31.27;;
21000;SDS011;10658;50.920;12.238;2022-08-19T03:41:59;47.53;;;32.00;;
21000;SDS011;10658;50.920;12.238;2022-08-19T03:46:04;50.38;;;31.92;;
21000;SDS011;10658;50.920;12.238;2022-08-19T03:50:07;48.60;;;32.72;;
21000;SDS011;10658;50.920;12.238;2022-08-19T03:54:11;47.92;;;32.17;;
21000;SDS011;10658;50.920;12.238;2022-08-19T03:58:13;53.10;;;34.38;;
21000;SDS011;10658;50.920;12.238;2022-08-19T04:02:14;55.60;;;37.40;;
21000;SDS011;10658;50.920;12.238;2022-08-19T04:06:20;56.25;;;34.88;;
21000;SDS011;10658;50.920;12.238;2022-08-19T04:10:24;47.97;;;31.77;;
21000;SDS011;10658;50.920;12.238;2022-08-19T04:14:27;57.25;;;33.92;;
21000;SDS011;10658;50.920;12.238;2022-08-19T04:18:30;52.45;;;33.95;;
21000;SDS011;10658;50.920;12.238;2022-08-19T04:22:33;57.08;;;35.20;;
21000;SDS011;10658;50.920;12.238;2022-08-19T04:26:35;55.10;;;34.30;;
21000;SDS011;10658;50.920;12.238;2022-08-19T04:30:47;53.60;;;32.42;;
21000;SDS011;10658;50.920;12.238;2022-08-19T04:34:50;56.03;;;32.05;;
21000;SDS011;10658;50.920;12.238;2022-08-19T04:38:53;55.72;;;33.38;;
21000;SDS011;10658;50.920;12.238;2022-08-19T04:42:59;49.38;;;31.58;;
21000;SDS011;10658;50.920;12.238;2022-08-19T04:47:01;52.67;;;33.55;;
21000;SDS011;10658;50.920;12.238;2022-08-19T04:51:06;52.75;;;32.50;;
21000;SDS011;10658;50.920;12.238;2022-08-19T04:55:10;49.75;;;32.55;;
21000;SDS011;10658;50.920;12.238;2022-08-19T04:59:13;52.88;;;33.83;;
21000;SDS011;10658;50.920;12.238;2022-08-19T05:03:14;54.45;;;33.28;;
21000;SDS011;10658;50.920;12.238;2022-08-19T05:07:18;55.22;;;33.40;;
21000;SDS011;10658;50.920;12.238;2022-08-19T05:11:20;52.45;;;33.53;;
21000;SDS011;10658;50.920;12.238;2022-08-19T05:15:23;53.78;;;34.22;;
21000;SDS011;10658;50.920;12.238;2022-08-19T05:19:24;51.45;;;33.95;;
21000;SDS011;10658;50.920;12.238;2022-08-19T05:23:44;57.95;;;36.15;;
21000;SDS011;10658;50.920;12.238;2022-08-19T05:27:46;53.78;;;33.05;;
21000;SDS011;10658;50.920;12.238;2022-08-19T05:31:48;52.92;;;33.35;;
21000;SDS011;10658;50.920;12.238;2022-08-19T05:35:50;56.80;;;33.58;;
21000;SDS011;10658;50.920;12.238;2022-08-19T05:39:51;54.03;;;31.98;;
21000;SDS011;10658;50.920;12.238;2022-08-19T05:43:55;55.28;;;34.65;;
21000;SDS011;10658;50.920;12.238;2022-08-19T05:47:57;56.08;;;33.92;;
21000;SDS011;10658;50.920;12.238;2022-08-19T05:52:01;51.65;;;31.90;;
21000;SDS011;10658;50.920;12.238;2022-08-19T05:56:05;60.00;;;33.90;;
21000;SDS011;10658;50.920;12.238;2022-08-19T06:00:13;56.42;;;31.65;;
21000;SDS011;10658;50.920;12.238;2022-08-19T06:04:14;54.70;;;35.28;;
21000;SDS011;10658;50.920;12.238;2022-08-19T06:08:16;60.88;;;35.03;;
21000;SDS011;10658;50.920;12.238;2022-08-19T06:12:18;61.15;;;34.95;;
21000;SDS011;10658;50.920;12.238;2022-08-19T06:16:20;62.35;;;38.08;;
21000;SDS011;10658;50.920;12.238;2022-08-19T06:20:22;62.28;;;36.95;;
21000;SDS011;10658;50.920;12.238;2022-08-19T06:24:24;63.00;;;36.70;;
21000;SDS011;10658;50.920;12.238;2022-08-19T06:28:27;62.13;;;35.35;;
21000;SDS011;10658;50.920;12.238;2022-08-19T06:32:29;54.45;;;32.72;;
21000;SDS011;10658;50.920;12.238;2022-08-19T06:45:54;58.67;;;33.85;;
21000;SDS011;10658;50.920;12.238;2022-08-19T06:49:56;52.97;;;33.70;;
21000;SDS011;10658;50.920;12.238;2022-08-19T06:54:05;63.50;;;36.75;;
21000;SDS011;10658;50.920;12.238;2022-08-19T06:58:06;49.88;;;30.63;;
21000;SDS011;10658;50.920;12.238;2022-08-19T07:02:07;53.38;;;33.42;;
21000;SDS011;10658;50.920;12.238;2022-08-19T07:06:10;48.50;;;32.67;;
21000;SDS011;10658;50.920;12.238;2022-08-19T07:10:15;52.50;;;32.45;;
21000;SDS011;10658;50.920;12.238;2022-08-19T07:14:17;50.80;;;29.95;;
21000;SDS011;10658;50.920;12.238;2022-08-19T07:18:21;45.92;;;30.02;;
21000;SDS011;10658;50.920;12.238;2022-08-19T07:22:23;45.13;;;29.83;;
21000;SDS011;10658;50.920;12.238;2022-08-19T07:26:26;44.50;;;27.98;;
21000;SDS011;10658;50.920;12.238;2022-08-19T07:30:29;49.92;;;30.27;;
21000;SDS011;10658;50.920;12.238;2022-08-19T07:34:32;45.00;;;28.58;;
21000;SDS011;10658;50.920;12.238;2022-08-19T07:38:40;46.53;;;30.13;;
21000;SDS011;10658;50.920;12.238;2022-08-19T07:42:42;44.28;;;29.13;;
21000;SDS011;10658;50.920;12.238;2022-08-19T07:46:44;44.63;;;28.15;;
21000;SDS011;10658;50.920;12.238;2022-08-19T07:50:49;52.80;;;28.85;;
21000;SDS011;10658;50.920;12.238;2022-08-19T07:54:50;47.33;;;29.60;;
21000;SDS011;10658;50.920;12.238;2022-08-19T07:58:51;44.13;;;29.00;;
21000;SDS011;10658;50.920;12.238;2022-08-19T08:02:54;47.38;;;30.50;;
21000;SDS011;10658;50.920;12.238;2022-08-19T08:06:55;41.03;;;26.50;;
21000;SDS011;10658;50.920;12.238;2022-08-19T08:11:16;42.50;;;27.65;;
21000;SDS011;10658;50.920;12.238;2022-08-19T08:15:19;35.92;;;24.08;;
21000;SDS011;10658;50.920;12.238;2022-08-19T08:19:21;37.80;;;25.50;;
21000;SDS011;10658;50.920;12.238;2022-08-19T08:23:25;39.25;;;26.77;;
21000;SDS011;10658;50.920;12.238;2022-08-19T08:27:26;39.45;;;24.98;;
21000;SDS011;10658;50.920;12.238;2022-08-19T08:31:29;38.00;;;23.88;;
21000;SDS011;10658;50.920;12.238;2022-08-19T08:35:31;39.85;;;25.02;;
21000;SDS011;10658;50.920;12.238;2022-08-19T08:39:34;47.45;;;24.55;;
21000;SDS011;10658;50.920;12.238;2022-08-19T08:43:37;42.50;;;25.08;;
21000;SDS011;10658;50.920;12.238;2022-08-19T08:47:47;48.95;;;29.08;;
21000;SDS011;10658;50.920;12.238;2022-08-19T08:51:56;45.78;;;28.35;;
21000;SDS011;10658;50.920;12.238;2022-08-19T08:56:03;51.30;;;28.90;;
21000;SDS011;10658;50.920;12.238;2022-08-19T09:00:08;52.40;;;29.02;;
21000;SDS011;10658;50.920;12.238;2022-08-19T09:04:15;60.40;;;34.70;;
21000;SDS011;10658;50.920;12.238;2022-08-19T09:12:26;58.88;;;36.58;;
21000;SDS011;10658;50.920;12.238;2022-08-19T09:16:50;62.60;;;34.78;;
21000;SDS011;10658;50.920;12.238;2022-08-19T09:20:52;53.55;;;33.78;;
21000;SDS011;10658;50.920;12.238;2022-08-19T09:24:53;55.40;;;33.13;;
21000;SDS011;10658;50.920;12.238;2022-08-19T09:28:55;48.08;;;29.67;;
21000;SDS011;10658;50.920;12.238;2022-08-19T09:32:58;40.47;;;26.58;;
21000;SDS011;10658;50.920;12.238;2022-08-19T09:37:00;42.83;;;28.30;;
21000;SDS011;10658;50.920;12.238;2022-08-19T09:41:05;40.85;;;25.50;;
21000;SDS011;10658;50.920;12.238;2022-08-19T09:45:08;37.13;;;23.25;;
21000;SDS011;10658;50.920;12.238;2022-08-19T09:49:10;37.80;;;22.13;;
21000;SDS011;10658;50.920;12.238;2022-08-19T09:53:11;35.88;;;20.75;;
21000;SDS011;10658;50.920;12.238;2022-08-19T09:57:12;31.45;;;20.90;;
21000;SDS011;10658;50.920;12.238;2022-08-19T10:01:24;36.47;;;19.92;;
21000;SDS011;10658;50.920;12.238;2022-08-19T10:05:28;30.17;;;20.42;;
21000;SDS011;10658;50.920;12.238;2022-08-19T10:09:48;37.28;;;23.30;;
21000;SDS011;10658;50.920;12.238;2022-08-19T10:13:49;33.67;;;20.35;;
21000;SDS011;10658;50.920;12.238;2022-08-19T10:17:50;36.55;;;20.52;;
21000;SDS011;10658;50.920;12.238;2022-08-19T10:21:53;36.25;;;18.92;;
21000;SDS011;10658;50.920;12.238;2022-08-19T10:25:54;50.10;;;23.55;;
21000;SDS011;10658;50.920;12.238;2022-08-19T10:30:01;40.95;;;21.90;;
21000;SDS011;10658;50.920;12.238;2022-08-19T10:34:03;39.20;;;21.52;;
21000;SDS011;10658;50.920;12.238;2022-08-19T10:38:04;36.28;;;20.38;;
21000;SDS011;10658;50.920;12.238;2022-08-19T10:42:06;33.10;;;19.48;;
21000;SDS011;10658;50.920;12.238;2022-08-19T10:46:10;30.10;;;16.08;;
21000;SDS011;10658;50.920;12.238;2022-08-19T10:50:13;29.98;;;17.00;;
21000;SDS011;10658;50.920;12.238;2022-08-19T10:54:33;32.40;;;18.23;;
21000;SDS011;10658;50.920;12.238;2022-08-19T10:58:53;36.85;;;20.08;;
21000;SDS011;10658;50.920;12.238;2022-08-19T11:02:58;32.90;;;19.63;;
21000;SDS011;10658;50.920;12.238;2022-08-19T11:06:59;29.67;;;20.05;;
21000;SDS011;10658;50.920;12.238;2022-08-19T11:11:00;33.65;;;20.95;;
21000;SDS011;10658;50.920;12.238;2022-08-19T11:15:03;34.03;;;20.05;;
21000;SDS011;10658;50.920;12.238;2022-08-19T11:19:08;30.60;;;18.30;;
21000;SDS011;10658;50.920;12.238;2022-08-19T11:23:11;25.25;;;15.50;;
21000;SDS011;10658;50.920;12.238;2022-08-19T11:27:12;24.75;;;14.77;;
21000;SDS011;10658;50.920;12.238;2022-08-19T11:31:19;26.02;;;14.90;;
21000;SDS011;10658;50.920;12.238;2022-08-19T11:35:22;21.67;;;14.43;;
21000;SDS011;10658;50.920;12.238;2022-08-19T11:43:51;17.73;;;13.02;;
21000;SDS011;10658;50.920;12.238;2022-08-19T11:48:08;18.85;;;12.27;;
21000;SDS011;10658;50.920;12.238;2022-08-19T11:52:13;21.35;;;12.20;;
21000;SDS011;10658;50.920;12.238;2022-08-19T11:56:16;13.65;;;9.60;;
21000;SDS011;10658;50.920;12.238;2022-08-19T12:00:19;13.55;;;9.25;;
21000;SDS011;10658;50.920;12.238;2022-08-19T12:04:22;12.20;;;8.77;;
21000;SDS011;10658;50.920;12.238;2022-08-19T12:08:23;9.85;;;7.93;;
21000;SDS011;10658;50.920;12.238;2022-08-19T12:12:27;11.32;;;7.60;;
21000;SDS011;10658;50.920;12.238;2022-08-19T12:16:28;9.15;;;7.25;;
21000;SDS011;10658;50.920;12.238;2022-08-19T12:20:36;11.00;;;7.50;;
21000;SDS011;10658;50.920;12.238;2022-08-19T12:24:38;10.13;;;6.50;;
21000;SDS011;10658;50.920;12.238;2022-08-19T12:28:40;7.70;;;6.45;;
21000;SDS011;10658;50.920;12.238;2022-08-19T12:32:42;7.00;;;6.10;;
21000;SDS011;10658;50.920;12.238;2022-08-19T12:36:44;7.70;;;6.55;;
21000;SDS011;10658;50.920;12.238;2022-08-19T12:40:45;11.15;;;7.68;;
21000;SDS011;10658;50.920;12.238;2022-08-19T12:44:47;9.50;;;7.20;;
21000;SDS011;10658;50.920;12.238;2022-08-19T12:48:49;9.73;;;7.88;;
21000;SDS011;10658;50.920;12.238;2022-08-19T12:52:53;7.75;;;6.43;;
21000;SDS011;10658;50.920;12.238;2022-08-19T12:56:54;5.28;;;4.78;;
21000;SDS011;10658;50.920;12.238;2022-08-19T13:00:56;5.88;;;5.28;;
21000;SDS011;10658;50.920;12.238;2022-08-19T13:04:58;6.88;;;5.00;;
21000;SDS011;10658;50.920;12.238;2022-08-19T13:08:59;6.65;;;5.68;;
21000;SDS011;10658;50.920;12.238;2022-08-19T13:13:02;7.63;;;6.00;;
21000;SDS011;10658;50.920;12.238;2022-08-19T13:17:06;6.93;;;6.07;;
21000;SDS011;10658;50.920;12.238;2022-08-19T13:21:09;7.00;;;5.50;;
21000;SDS011;10658;50.920;12.238;2022-08-19T13:25:14;6.28;;;5.65;;
21000;SDS011;10658;50.920;12.238;2022-08-19T13:29:20;8.20;;;5.05;;
21000;SDS011;10658;50.920;12.238;2022-08-19T13:33:41;8.27;;;5.10;;
21000;SDS011;10658;50.920;12.238;2022-08-19T13:37:43;6.28;;;4.68;;
21000;SDS011;10658;50.920;12.238;2022-08-19T13:41:45;5.82;;;5.22;;
21000;SDS011;10658;50.920;12.238;2022-08-19T13:45:52;6.97;;;5.97;;
21000;SDS011;10658;50.920;12.238;2022-08-19T13:49:56;6.18;;;5.57;;
21000;SDS011;10658;50.920;12.238;2022-08-19T13:53:57;6.72;;;4.63;;
21000;SDS011;10658;50.920;12.238;2022-08-19T13:58:00;6.95;;;4.82;;
21000;SDS011;10658;50.920;12.238;2022-08-19T14:02:03;7.10;;;5.38;;
21000;SDS011;10658;50.920;12.238;2022-08-19T14:06:06;6.70;;;4.82;;
21000;SDS011;10658;50.920;12.238;2022-08-19T14:10:08;5.20;;;4.35;;
21000;SDS011;10658;50.920;12.238;2022-08-19T14:14:13;5.07;;;4.20;;
21000;SDS011;10658;50.920;12.238;2022-08-19T14:18:14;5.55;;;3.92;;
21000;SDS011;10658;50.920;12.238;2022-08-19T14:22:17;5.07;;;4.25;;
21000;SDS011;10658;50.920;12.238;2022-08-19T14:26:20;5.68;;;4.18;;
21000;SDS011;10658;50.920;12.238;2022-08-19T14:30:23;5.25;;;4.28;;
21000;SDS011;10658;50.920;12.238;2022-08-19T14:34:28;4.18;;;3.78;;
21000;SDS011;10658;50.920;12.238;2022-08-19T14:38:32;5.40;;;3.92;;
21000;SDS011;10658;50.920;12.238;2022-08-19T14:42:34;5.05;;;3.97;;
21000;SDS011;10658;50.920;12.238;2022-08-19T14:46:35;7.22;;;3.75;;
21000;SDS011;10658;50.920;12.238;2022-08-19T14:50:36;6.10;;;4.55;;
21000;SDS011;10658;50.920;12.238;2022-08-19T14:54:38;6.45;;;4.75;;
21000;SDS011;10658;50.920;12.238;2022-08-19T14:58:39;5.88;;;4.57;;
21000;SDS011;10658;50.920;12.238;2022-08-19T15:02:42;4.68;;;4.20;;
21000;SDS011;10658;50.920;12.238;2022-08-19T15:06:46;6.88;;;4.35;;
21000;SDS011;10658;50.920;12.238;2022-08-19T15:10:48;5.20;;;4.35;;
21000;SDS011;10658;50.920;12.238;2022-08-19T15:14:49;8.43;;;5.15;;
21000;SDS011;10658;50.920;12.238;2022-08-19T15:18:55;5.60;;;4.53;;
21000;SDS011;10658;50.920;12.238;2022-08-19T15:22:58;5.45;;;4.63;;
21000;SDS011;10658;50.920;12.238;2022-08-19T15:27:01;7.93;;;5.95;;
21000;SDS011;10658;50.920;12.238;2022-08-19T15:31:03;10.80;;;5.35;;
21000;SDS011;10658;50.920;12.238;2022-08-19T15:35:05;12.20;;;6.95;;
21000;SDS011;10658;50.920;12.238;2022-08-19T15:39:07;8.32;;;4.57;;
21000;SDS011;10658;50.920;12.238;2022-08-19T15:43:09;5.47;;;4.70;;
21000;SDS011;10658;50.920;12.238;2022-08-19T15:47:11;5.90;;;4.20;;
21000;SDS011;10658;50.920;12.238;2022-08-19T15:51:16;7.20;;;5.53;;
21000;SDS011;10658;50.920;12.238;2022-08-19T15:55:27;6.28;;;5.15;;
21000;SDS011;10658;50.920;12.238;2022-08-19T15:59:37;4.97;;;4.38;;
21000;SDS011;10658;50.920;12.238;2022-08-19T16:04:01;5.80;;;4.57;;
21000;SDS011;10658;50.920;12.238;2022-08-19T16:08:21;4.38;;;3.92;;
21000;SDS011;10658;50.920;12.238;2022-08-19T16:12:22;6.45;;;4.05;;
21000;SDS011;10658;50.920;12.238;2022-08-19T16:16:29;4.82;;;4.20;;
21000;SDS011;10658;50.920;12.238;2022-08-19T16:20:33;4.78;;;4.25;;
21000;SDS011;10658;50.920;12.238;2022-08-19T16:24:34;5.90;;;4.35;;
21000;SDS011;10658;50.920;12.238;2022-08-19T16:28:36;6.07;;;4.82;;
21000;SDS011;10658;50.920;12.238;2022-08-19T16:32:41;6.53;;;4.35;;
21000;SDS011;10658;50.920;12.238;2022-08-19T16:36:48;4.75;;;4.22;;
21000;SDS011;10658;50.920;12.238;2022-08-19T16:40:50;6.93;;;5.05;;
21000;SDS011;10658;50.920;12.238;2022-08-19T16:44:53;5.90;;;5.00;;
21000;SDS011;10658;50.920;12.238;2022-08-19T16:48:54;7.78;;;5.85;;
21000;SDS011;10658;50.920;12.238;2022-08-19T16:52:56;5.38;;;4.53;;
21000;SDS011;10658;50.920;12.238;2022-08-19T16:56:58;8.23;;;5.43;;
21000;SDS011;10658;50.920;12.238;2022-08-19T17:01:01;6.72;;;5.10;;
21000;SDS011;10658;50.920;12.238;2022-08-19T17:05:07;9.68;;;6.10;;
21000;SDS011;10658;50.920;12.238;2022-08-19T17:09:09;6.85;;;5.53;;
21000;SDS011;10658;50.920;12.238;2022-08-19T17:13:11;6.60;;;5.22;;
21000;SDS011;10658;50.920;12.238;2022-08-19T17:17:15;11.40;;;6.93;;
21000;SDS011;10658;50.920;12.238;2022-08-19T17:21:24;9.27;;;7.22;;
21000;SDS011;10658;50.920;12.238;2022-08-19T17:25:28;8.95;;;6.63;;
21000;SDS011;10658;50.920;12.238;2022-08-19T17:29:31;18.15;;;10.10;;
21000;SDS011;10658;50.920;12.238;2022-08-19T17:33:33;10.40;;;6.60;;
21000;SDS011;10658;50.920;12.238;2022-08-19T17:37:36;8.88;;;5.93;;
21000;SDS011;10658;50.920;12.238;2022-08-19T17:41:38;9.70;;;7.18;;
21000;SDS011;10658;50.920;12.238;2022-08-19T17:45:40;10.20;;;5.88;;
21000;SDS011;10658;50.920;12.238;2022-08-19T17:49:42;7.82;;;5.75;;
21000;SDS011;10658;50.920;12.238;2022-08-19T17:53:44;5.82;;;5.07;;
21000;SDS011;10658;50.920;12.238;2022-08-19T17:57:45;5.57;;;5.05;;
21000;SDS011;10658;50.920;12.238;2022-08-19T18:01:47;5.15;;;4.60;;
21000;SDS011;10658;50.920;12.238;2022-08-19T18:05:49;5.30;;;4.80;;
21000;SDS011;10658;50.920;12.238;2022-08-19T18:09:50;6.43;;;5.45;;
21000;SDS011;10658;50.920;12.238;2022-08-19T18:13:53;6.55;;;4.85;;
21000;SDS011;10658;50.920;12.238;2022-08-19T18:17:58;7.75;;;5.43;;
21000;SDS011;10658;50.920;12.238;2022-08-19T18:22:02;6.57;;;4.80;;
21000;SDS011;10658;50.920;12.238;2022-08-19T18:26:03;9.63;;;5.35;;
21000;SDS011;10658;50.920;12.238;2022-08-19T18:30:05;10.75;;;7.22;;
21000;SDS011;10658;50.920;12.238;2022-08-19T18:34:06;17.25;;;9.55;;
21000;SDS011;10658;50.920;12.238;2022-08-19T18:38:10;41.17;;;26.95;;
21000;SDS011;10658;50.920;12.238;2022-08-19T18:42:34;58.60;;;35.45;;
21000;SDS011;10658;50.920;12.238;2022-08-19T18:46:53;26.83;;;17.50;;
21000;SDS011;10658;50.920;12.238;2022-08-19T18:51:14;15.15;;;8.75;;
21000;SDS011;10658;50.920;12.238;2022-08-19T18:55:17;15.50;;;11.00;;
21000;SDS011;10658;50.920;12.238;2022-08-19T18:59:18;12.32;;;7.55;;
21000;SDS011;10658;50.920;12.238;2022-08-19T19:03:20;11.45;;;8.23;;
21000;SDS011;10658;50.920;12.238;2022-08-19T19:07:23;9.52;;;7.40;;
21000;SDS011;10658;50.920;12.238;2022-08-19T19:11:28;7.90;;;6.13;;
21000;SDS011;10658;50.920;12.238;2022-08-19T19:15:32;5.85;;;5.15;;
21000;SDS011;10658;50.920;12.238;2022-08-19T19:19:34;8.23;;;6.13;;
21000;SDS011;10658;50.920;12.238;2022-08-19T19:23:36;7.10;;;5.35;;
21000;SDS011;10658;50.920;12.238;2022-08-19T19:27:40;6.32;;;4.75;;
21000;SDS011;10658;50.920;12.238;2022-08-19T19:31:41;6.25;;;5.00;;
21000;SDS011;10658;50.920;12.238;2022-08-19T19:35:43;7.75;;;5.38;;
21000;SDS011;10658;50.920;12.238;2022-08-19T19:39:45;6.07;;;5.28;;
21000;SDS011;10658;50.920;12.238;2022-08-19T19:43:47;7.45;;;5.13;;
21000;SDS011;10658;50.920;12.238;2022-08-19T19:47:49;5.68;;;4.95;;
21000;SDS011;10658;50.920;12.238;2022-08-19T19:51:52;8.00;;;5.40;;
21000;SDS011;10658;50.920;12.238;2022-08-19T19:55:53;11.85;;;7.40;;
21000;SDS011;10658;50.920;12.238;2022-08-19T19:59:57;7.90;;;6.15;;
21000;SDS011;10658;50.920;12.238;2022-08-19T20:04:04;7.50;;;6.03;;
21000;SDS011;10658;50.920;12.238;2022-08-19T20:08:06;9.30;;;5.25;;
21000;SDS011;10658;50.920;12.238;2022-08-19T20:12:25;8.05;;;6.18;;
21000;SDS011;10658;50.920;12.238;2022-08-19T20:16:29;6.15;;;5.22;;
21000;SDS011;10658;50.920;12.238;2022-08-19T20:20:31;8.57;;;5.38;;
21000;SDS011;10658;50.920;12.238;2022-08-19T20:24:33;11.05;;;8.75;;
21000;SDS011;10658;50.920;12.238;2022-08-19T20:28:35;15.27;;;10.38;;
21000;SDS011;10658;50.920;12.238;2022-08-19T20:32:36;11.70;;;7.55;;
21000;SDS011;10658;50.920;12.238;2022-08-19T20:36:37;8.52;;;5.90;;
21000;SDS011;10658;50.920;12.238;2022-08-19T20:40:40;9.82;;;6.28;;
21000;SDS011;10658;50.920;12.238;2022-08-19T20:44:41;10.43;;;6.90;;
21000;SDS011;10658;50.920;12.238;2022-08-19T20:48:42;8.80;;;6.95;;
21000;SDS011;10658;50.920;12.238;2022-08-19T20:52:43;10.30;;;7.53;;
21000;SDS011;10658;50.920;12.238;2022-08-19T20:56:45;10.50;;;7.18;;
21000;SDS011;10658;50.920;12.238;2022-08-19T21:00:48;11.50;;;7.45;;
21000;SDS011;10658;50.920;12.238;2022-08-19T21:04:50;10.05;;;6.07;;
21000;SDS011;10658;50.920;12.238;2022-08-19T21:08:51;10.80;;;7.35;;
21000;SDS011;10658;50.920;12.238;2022-08-19T21:12:54;8.65;;;7.10;;
21000;SDS011;10658;50.920;12.238;2022-08-19T21:16:55;11.63;;;7.70;;
21000;SDS011;10658;50.920;12.238;2022-08-19T21:20:57;9.32;;;6.97;;
21000;SDS011;10658;50.920;12.238;2022-08-19T21:24:58;8.38;;;6.28;;
21000;SDS011;10658;50.920;12.238;2022-08-19T21:28:59;9.45;;;6.95;;
21000;SDS011;10658;50.920;12.238;2022-08-19T21:33:01;9.35;;;6.80;;
21000;SDS011;10658;50.920;12.238;2022-08-19T21:37:04;9.80;;;7.18;;
21000;SDS011;10658;50.920;12.238;2022-08-19T21:41:05;11.43;;;7.47;;
21000;SDS011;10658;50.920;12.238;2022-08-19T21:45:07;9.27;;;6.80;;
21000;SDS011;10658;50.920;12.238;2022-08-19T21:49:09;13.35;;;6.50;;
21000;SDS011;10658;50.920;12.238;2022-08-19T21:53:11;8.68;;;6.72;;
21000;SDS011;10658;50.920;12.238;2022-08-19T21:57:15;10.85;;;7.13;;
21000;SDS011;10658;50.920;12.238;2022-08-19T22:01:17;13.10;;;6.55;;
21000;SDS011;10658;50.920;12.238;2022-08-19T22:05:18;9.45;;;6.68;;
21000;SDS011;10658;50.920;12.238;2022-08-19T22:09:22;9.98;;;6.60;;
21000;SDS011;10658;50.920;12.238;2022-08-19T22:13:24;8.07;;;7.05;;
21000;SDS011;10658;50.920;12.238;2022-08-19T22:17:26;9.30;;;6.68;;
21000;SDS011;10658;50.920;12.238;2022-08-19T22:21:28;9.10;;;6.55;;
21000;SDS011;10658;50.920;12.238;2022-08-19T22:25:30;9.75;;;6.75;;
21000;SDS011;10658;50.920;12.238;2022-08-19T22:29:37;8.63;;;6.38;;
21000;SDS011;10658;50.920;12.238;2022-08-19T22:33:39;9.52;;;6.55;;
21000;SDS011;10658;50.920;12.238;2022-08-19T22:37:41;8.60;;;6.53;;
21000;SDS011;10658;50.920;12.238;2022-08-19T22:41:42;7.80;;;6.97;;
21000;SDS011;10658;50.920;12.238;2022-08-19T22:45:45;8.98;;;6.90;;
21000;SDS011;10658;50.920;12.238;2022-08-19T22:49:48;7.93;;;6.70;;
21000;SDS011;10658;50.920;12.238;2022-08-19T22:53:51;11.13;;;6.97;;
21000;SDS011;10658;50.920;12.238;2022-08-19T22:57:52;7.75;;;6.22;;
21000;SDS011;10658;50.920;12.238;2022-08-19T23:01:54;8.48;;;6.97;;
21000;SDS011;10658;50.920;12.238;2022-08-19T23:05:56;12.30;;;6.95;;
21000;SDS011;10658;50.920;12.238;2022-08-19T23:09:57;7.65;;;6.00;;
21000;SDS011;10658;50.920;12.238;2022-08-19T23:13:59;11.48;;;7.88;;
21000;SDS011;10658;50.920;12.238;2022-08-19T23:18:01;12.10;;;7.65;;
21000;SDS011;10658;50.920;12.238;2022-08-19T23:22:04;9.98;;;7.68;;
21000;SDS011;10658;50.920;12.238;2022-08-19T23:26:06;13.65;;;9.05;;
21000;SDS011;10658;50.920;12.238;2022-08-19T23:30:08;9.43;;;8.38;;
21000;SDS011;10658;50.920;12.238;2022-08-19T23:34:25;12.23;;;8.63;;
21000;SDS011;10658;50.920;12.238;2022-08-19T23:38:27;14.60;;;9.10;;
21000;SDS011;10658;50.920;12.238;2022-08-19T23:42:29;18.08;;;11.25;;
21000;SDS011;10658;50.920;12.238;2022-08-19T23:46:30;16.55;;;10.93;;
21000;SDS011;10658;50.920;12.238;2022-08-19T23:50:32;15.07;;;10.65;;
21000;SDS011;10658;50.920;12.238;2022-08-19T23:54:34;17.77;;;10.70;;
21000;SDS011;10658;50.920;12.238;2022-08-19T23:58:35;14.40;;;10.00;;
